createdAt,value
2022-11-21T00:01:26.019Z,8.88
2022-11-21T00:03:52.997Z,7.68
2022-11-21T00:06:20.465Z,7.18
2022-11-21T00:08:47.431Z,6.93
2022-11-21T00:11:14.497Z,6.70
2022-11-21T00:13:41.701Z,16.75
2022-11-21T00:16:14.566Z,23.90
2022-11-21T00:18:42.330Z,19.42
2022-11-21T00:21:12.613Z,17.83
2022-11-21T00:23:39.617Z,13.93
2022-11-21T00:26:10.954Z,12.82
2022-11-21T00:28:38.039Z,11.20
2022-11-21T00:31:05.899Z,9.90
2022-11-21T00:33:34.941Z,9.88
2022-11-21T00:36:11.541Z,9.10
2022-11-21T00:38:38.565Z,8.63
2022-11-21T00:41:05.936Z,8.50
2022-11-21T00:43:32.978Z,7.90
2022-11-21T00:46:02.632Z,7.78
2022-11-21T00:48:30.766Z,7.18
2022-11-21T00:50:57.927Z,7.45
2022-11-21T00:53:24.761Z,6.85
2022-11-21T00:55:51.654Z,6.63
2022-11-21T00:58:18.522Z,5.82
2022-11-21T01:00:45.393Z,5.82
2022-11-21T01:03:12.257Z,6.07
2022-11-21T01:05:39.114Z,6.07
2022-11-21T01:08:06.062Z,5.57
2022-11-21T01:10:35.028Z,5.50
2022-11-21T01:13:01.914Z,5.07
2022-11-21T01:15:28.767Z,5.40
2022-11-21T01:17:55.623Z,5.47
2022-11-21T01:20:22.452Z,4.97
2022-11-21T01:22:49.297Z,4.95
2022-11-21T01:25:16.214Z,4.97
2022-11-21T01:27:43.047Z,4.65
2022-11-21T01:30:11.941Z,4.97
2022-11-21T01:32:38.761Z,4.40
2022-11-21T01:35:06.117Z,4.45
2022-11-21T01:37:33.057Z,4.80
2022-11-21T01:39:59.946Z,4.10
2022-11-21T01:42:26.753Z,4.20
2022-11-21T01:44:54.509Z,4.28
2022-11-21T01:47:22.810Z,4.32
2022-11-21T01:49:50.331Z,3.70
2022-11-21T01:52:19.265Z,4.30
2022-11-21T01:54:48.214Z,4.13
2022-11-21T01:57:53.968Z,3.97
2022-11-21T02:00:24.607Z,3.90
2022-11-21T02:02:56.255Z,4.15
2022-11-21T02:05:26.790Z,3.97
2022-11-21T02:07:57.163Z,3.50
2022-11-21T02:10:24.120Z,3.75
2022-11-21T02:12:52.597Z,3.83
2022-11-21T02:15:21.888Z,3.60
2022-11-21T02:17:48.781Z,3.30
2022-11-21T02:20:18.002Z,3.45
2022-11-21T02:22:49.304Z,2.88
2022-11-21T02:25:19.128Z,3.65
2022-11-21T02:27:46.962Z,3.45
2022-11-21T02:30:13.939Z,3.63
2022-11-21T02:32:45.226Z,2.97
2022-11-21T02:35:12.063Z,3.35
2022-11-21T02:37:38.932Z,3.50
2022-11-21T02:40:10.104Z,3.42
2022-11-21T02:42:58.878Z,3.17
2022-11-21T02:45:30.829Z,2.77
2022-11-21T02:48:03.397Z,3.22
2022-11-21T02:50:32.555Z,3.28
2022-11-21T02:52:59.825Z,2.80
2022-11-21T02:55:27.373Z,2.75
2022-11-21T02:57:54.610Z,2.97
2022-11-21T03:00:22.051Z,2.45
2022-11-21T03:02:49.168Z,3.13
2022-11-21T03:05:17.830Z,2.90
2022-11-21T03:07:45.741Z,2.72
2022-11-21T03:10:12.847Z,2.58
2022-11-21T03:12:40.837Z,2.60
2022-11-21T03:15:11.154Z,2.58
2022-11-21T03:17:38.118Z,2.40
2022-11-21T03:20:05.973Z,2.80
2022-11-21T03:22:33.144Z,2.38
2022-11-21T03:24:59.991Z,3.05
2022-11-21T03:27:26.828Z,2.67
2022-11-21T03:29:53.678Z,2.53
2022-11-21T03:32:20.492Z,2.72
2022-11-21T03:34:47.308Z,2.38
2022-11-21T03:37:14.129Z,2.47
2022-11-21T03:39:40.938Z,2.50
2022-11-21T03:42:07.764Z,2.42
2022-11-21T03:44:34.581Z,2.33
2022-11-21T03:47:01.421Z,2.38
2022-11-21T03:49:28.221Z,2.22
2022-11-21T03:51:55.109Z,2.03
2022-11-21T03:54:22.000Z,2.20
2022-11-21T03:56:48.816Z,2.15
2022-11-21T03:59:15.657Z,2.20
2022-11-21T04:01:42.520Z,2.17
2022-11-21T04:04:09.358Z,1.95
2022-11-21T04:06:36.169Z,2.15
2022-11-21T04:09:03.487Z,2.00
2022-11-21T04:11:30.309Z,2.08
2022-11-21T04:13:57.216Z,1.90
2022-11-21T04:16:24.120Z,1.80
2022-11-21T04:18:51.278Z,1.80
2022-11-21T04:21:18.176Z,1.88
2022-11-21T04:23:45.021Z,2.05
2022-11-21T04:26:11.883Z,2.10
2022-11-21T04:28:38.789Z,1.80
2022-11-21T04:31:10.196Z,1.90
2022-11-21T04:33:38.760Z,1.55
2022-11-21T04:36:09.664Z,2.00
2022-11-21T04:38:36.896Z,1.60
2022-11-21T04:41:04.824Z,1.70
2022-11-21T04:43:31.839Z,1.80
2022-11-21T04:45:58.766Z,1.55
2022-11-21T04:48:25.596Z,1.40
2022-11-21T04:50:52.436Z,1.50
2022-11-21T04:53:19.270Z,1.42
2022-11-21T04:55:46.117Z,1.88
2022-11-21T04:58:13.052Z,1.60
2022-11-21T05:00:39.885Z,1.40
2022-11-21T05:03:07.676Z,1.75
2022-11-21T05:05:34.571Z,2.13
2022-11-21T05:08:01.461Z,1.42
2022-11-21T05:10:28.289Z,1.20
2022-11-21T05:13:20.044Z,1.27
2022-11-21T05:15:47.697Z,1.35
2022-11-21T05:18:14.543Z,1.80
2022-11-21T05:20:41.345Z,1.40
2022-11-21T05:23:08.230Z,1.30
2022-11-21T05:28:02.172Z,1.48
2022-11-21T05:30:29.198Z,1.40
2022-11-21T05:32:56.007Z,1.75
2022-11-21T05:35:22.817Z,1.50
2022-11-21T05:37:55.097Z,1.30
2022-11-21T05:40:21.901Z,1.38
2022-11-21T05:43:07.374Z,1.40
2022-11-21T05:45:34.226Z,1.25
2022-11-21T05:48:01.132Z,1.17
2022-11-21T05:50:27.980Z,1.35
2022-11-21T05:52:54.809Z,1.33
2022-11-21T05:55:21.643Z,1.55
2022-11-21T05:57:48.488Z,1.20
2022-11-21T06:00:15.952Z,1.33
2022-11-21T06:03:01.256Z,1.20
2022-11-21T06:05:28.127Z,1.40
2022-11-21T06:07:54.951Z,1.40
2022-11-21T06:10:21.837Z,1.50
2022-11-21T06:12:48.689Z,1.30
2022-11-21T06:15:15.605Z,1.48
2022-11-21T06:17:42.408Z,1.35
2022-11-21T06:20:10.178Z,1.20
2022-11-21T06:22:37.004Z,1.00
2022-11-21T06:25:03.988Z,1.17
2022-11-21T06:27:30.799Z,1.33
2022-11-21T06:29:57.686Z,0.95
2022-11-21T06:32:24.553Z,1.20
2022-11-21T06:34:51.396Z,1.27
2022-11-21T06:37:18.294Z,1.15
2022-11-21T06:39:45.139Z,1.20
2022-11-21T06:42:11.972Z,1.05
2022-11-21T06:44:38.789Z,1.27
2022-11-21T06:47:05.674Z,1.25
2022-11-21T06:49:32.528Z,1.08
2022-11-21T06:51:59.668Z,1.00
2022-11-21T06:54:26.490Z,1.10
2022-11-21T06:56:55.542Z,0.95
2022-11-21T06:59:22.401Z,1.15
2022-11-21T07:01:49.524Z,1.30
2022-11-21T07:04:16.438Z,1.48
2022-11-21T07:06:43.304Z,1.38
2022-11-21T07:09:32.221Z,1.20
2022-11-21T07:12:16.894Z,1.42
2022-11-21T07:14:43.711Z,1.02
2022-11-21T07:17:14.058Z,1.33
2022-11-21T07:19:41.302Z,1.25
2022-11-21T07:22:10.674Z,1.80
2022-11-21T07:24:37.693Z,1.45
2022-11-21T07:27:04.521Z,1.17
2022-11-21T07:29:31.474Z,1.52
2022-11-21T07:31:58.508Z,1.40
2022-11-21T07:34:25.371Z,1.40
2022-11-21T07:36:52.202Z,29.85
2022-11-21T07:39:19.765Z,64.47
2022-11-21T07:41:46.659Z,57.22
2022-11-21T07:44:13.467Z,49.65
2022-11-21T07:46:40.281Z,49.97
2022-11-21T07:49:07.482Z,46.70
2022-11-21T07:51:34.339Z,43.50
2022-11-21T07:54:01.203Z,37.47
2022-11-21T07:56:28.251Z,33.53
2022-11-21T07:58:55.211Z,32.22
2022-11-21T08:01:22.118Z,30.60
2022-11-21T08:03:49.064Z,72.22
2022-11-21T08:08:43.410Z,83.07
2022-11-21T08:11:10.312Z,80.18
2022-11-21T08:13:37.193Z,75.50
2022-11-21T08:16:05.069Z,66.68
2022-11-21T08:18:32.136Z,59.08
2022-11-21T08:21:02.578Z,53.80
2022-11-21T08:23:29.592Z,49.60
2022-11-21T08:25:56.476Z,46.03
2022-11-21T08:28:23.359Z,41.35
2022-11-21T08:30:50.306Z,39.80
2022-11-21T08:33:17.763Z,39.30
2022-11-21T08:35:44.675Z,35.92
2022-11-21T08:38:11.507Z,34.47
2022-11-21T08:40:38.359Z,33.13
2022-11-21T08:43:07.297Z,32.30
2022-11-21T08:45:35.580Z,30.42
2022-11-21T08:48:02.956Z,30.08
2022-11-21T08:50:29.862Z,28.42
2022-11-21T08:53:01.587Z,27.70
2022-11-21T08:55:28.917Z,27.85
2022-11-21T08:57:55.848Z,27.67
2022-11-21T09:00:22.957Z,25.10
2022-11-21T09:02:49.880Z,52.70
2022-11-21T09:05:16.900Z,94.13
2022-11-21T09:07:43.943Z,87.28
2022-11-21T09:10:10.957Z,82.95
2022-11-21T09:12:37.795Z,69.07
2022-11-21T09:15:23.760Z,59.80
2022-11-21T09:18:07.685Z,55.85
2022-11-21T09:20:40.319Z,54.08
2022-11-21T09:23:09.051Z,47.42
2022-11-21T09:25:36.207Z,44.28
2022-11-21T09:28:04.157Z,44.42
2022-11-21T09:30:31.064Z,42.78
2022-11-21T09:33:12.691Z,40.30
2022-11-21T09:35:39.844Z,37.97
2022-11-21T09:38:06.682Z,36.20
2022-11-21T09:40:35.028Z,35.15
2022-11-21T09:43:26.877Z,60.25
2022-11-21T09:46:15.639Z,84.60
2022-11-21T09:48:51.346Z,70.70
2022-11-21T09:51:19.842Z,68.20
2022-11-21T09:54:10.070Z,100.72
2022-11-21T09:56:39.533Z,109.05
2022-11-21T09:59:25.555Z,101.00
2022-11-21T10:01:52.495Z,95.80
2022-11-21T10:04:19.368Z,88.35
2022-11-21T10:06:56.222Z,84.22
2022-11-21T10:09:41.532Z,78.03
2022-11-21T10:12:53.515Z,71.85
2022-11-21T10:15:47.175Z,66.68
2022-11-21T10:18:32.304Z,64.70
2022-11-21T10:21:04.921Z,58.97
2022-11-21T10:23:59.858Z,57.00
2022-11-21T10:26:50.459Z,52.15
2022-11-21T10:29:29.921Z,51.97
2022-11-21T10:34:36.032Z,40.95
2022-11-21T10:37:12.098Z,39.17
2022-11-21T10:39:43.673Z,38.72
2022-11-21T10:42:21.614Z,36.38
2022-11-21T10:45:09.695Z,34.75
2022-11-21T10:47:39.336Z,34.47
2022-11-21T10:50:28.024Z,30.23
2022-11-21T10:53:38.939Z,28.50
2022-11-21T10:56:15.632Z,24.63
2022-11-21T10:58:43.798Z,23.65
2022-11-21T11:01:34.347Z,23.98
2022-11-21T11:04:29.058Z,21.73
2022-11-21T11:06:56.918Z,21.77
2022-11-21T11:09:25.345Z,22.10
2022-11-21T11:11:52.306Z,23.33
2022-11-21T11:14:31.474Z,21.77
2022-11-21T11:16:58.890Z,21.52
2022-11-21T11:19:35.451Z,20.63
2022-11-21T11:24:32.472Z,20.95
2022-11-21T11:27:01.863Z,19.95
2022-11-21T11:29:30.880Z,20.05
2022-11-21T11:32:20.931Z,18.83
2022-11-21T11:35:03.071Z,19.40
2022-11-21T11:37:40.806Z,18.95
2022-11-21T11:40:20.416Z,18.20
2022-11-21T11:43:33.547Z,18.05
2022-11-21T11:46:53.588Z,17.63
2022-11-21T11:49:29.143Z,16.48
2022-11-21T11:51:59.756Z,16.08
2022-11-21T11:54:35.592Z,16.33
2022-11-21T11:57:04.820Z,17.27
2022-11-21T11:59:39.718Z,16.27
2022-11-21T12:02:23.980Z,15.70
2022-11-21T12:04:58.018Z,15.70
2022-11-21T12:08:39.092Z,15.13
2022-11-21T12:11:00.884Z,15.20
2022-11-21T12:16:01.752Z,14.30
2022-11-21T12:18:37.593Z,14.15
2022-11-21T12:21:18.637Z,13.40
2022-11-21T12:23:47.643Z,12.40
2022-11-21T12:26:20.296Z,13.35
2022-11-21T12:29:15.204Z,11.90
2022-11-21T12:31:52.021Z,11.73
2022-11-21T12:34:37.617Z,11.82
2022-11-21T12:37:16.455Z,11.75
2022-11-21T12:40:20.910Z,10.87
2022-11-21T12:42:50.998Z,10.48
2022-11-21T12:45:51.075Z,10.15
2022-11-21T12:48:49.433Z,9.82
2022-11-21T12:51:53.522Z,9.50
2022-11-21T12:54:49.572Z,9.75
2022-11-21T12:57:21.108Z,9.05
2022-11-21T12:59:56.980Z,8.13
2022-11-21T13:02:57.156Z,8.63
2022-11-21T13:05:37.247Z,7.47
2022-11-21T13:08:08.305Z,7.25
2022-11-21T13:10:35.288Z,7.03
2022-11-21T13:13:05.763Z,7.00
2022-11-21T13:15:44.337Z,7.35
2022-11-21T13:18:25.781Z,6.90
2022-11-21T13:20:52.909Z,6.88
2022-11-21T13:23:39.109Z,6.95
2022-11-21T13:26:24.449Z,7.10
2022-11-21T13:29:27.424Z,6.57
2022-11-21T13:31:54.719Z,6.78
2022-11-21T13:34:38.206Z,6.57
2022-11-21T13:37:05.801Z,6.57
2022-11-21T13:39:34.778Z,6.22
2022-11-21T13:42:22.993Z,6.75
2022-11-21T13:44:50.803Z,6.25
2022-11-21T13:47:26.604Z,6.25
2022-11-21T13:50:30.582Z,5.95
2022-11-21T13:53:27.418Z,6.25
2022-11-21T13:56:00.202Z,5.72
2022-11-21T13:58:35.916Z,6.65
2022-11-21T14:01:20.575Z,6.15
2022-11-21T14:04:18.389Z,5.85
2022-11-21T14:06:45.777Z,5.70
2022-11-21T14:09:37.001Z,5.90
2022-11-21T14:12:06.303Z,6.05
2022-11-21T14:14:40.205Z,5.20
2022-11-21T14:17:38.537Z,5.18
2022-11-21T14:20:29.238Z,5.00
2022-11-21T14:22:58.016Z,5.05
2022-11-21T14:25:37.216Z,4.47
2022-11-21T14:28:06.037Z,5.00
2022-11-21T14:30:41.371Z,4.55
2022-11-21T14:33:41.448Z,4.88
2022-11-21T14:36:17.706Z,4.53
2022-11-21T14:39:20.995Z,4.75
2022-11-21T14:41:40.276Z,5.60
2022-11-21T14:44:15.900Z,10.88
2022-11-21T14:46:44.324Z,11.13
2022-11-21T14:49:17.274Z,8.60
2022-11-21T14:51:48.948Z,8.52
2022-11-21T14:54:27.666Z,7.70
2022-11-21T14:56:57.693Z,7.60
2022-11-21T14:59:31.760Z,6.13
2022-11-21T15:02:06.815Z,5.90
2022-11-21T15:04:35.759Z,5.43
2022-11-21T15:07:03.526Z,5.28
2022-11-21T15:12:29.465Z,4.75
2022-11-21T15:15:09.781Z,5.07
2022-11-21T15:17:47.714Z,4.57
2022-11-21T15:20:26.256Z,4.43
2022-11-21T15:23:02.594Z,4.50
2022-11-21T15:25:47.271Z,4.82
2022-11-21T15:28:17.093Z,4.28
2022-11-21T15:33:16.481Z,52.47
2022-11-21T15:35:43.332Z,54.22
2022-11-21T15:38:17.372Z,45.78
2022-11-21T15:43:56.831Z,33.72
2022-11-21T15:46:29.041Z,29.42
2022-11-21T15:48:57.859Z,22.17
2022-11-21T15:52:00.043Z,20.17
2022-11-21T15:54:22.654Z,18.10
2022-11-21T15:56:49.529Z,16.65
2022-11-21T15:59:17.444Z,14.68
2022-11-21T16:01:44.318Z,13.32
2022-11-21T16:04:12.643Z,13.90
2022-11-21T16:06:39.570Z,12.20
2022-11-21T16:09:06.463Z,12.27
2022-11-21T16:11:37.400Z,11.45
2022-11-21T16:14:06.314Z,10.98
2022-11-21T16:16:41.481Z,10.20
2022-11-21T16:19:13.787Z,9.95
2022-11-21T16:21:40.906Z,9.90
2022-11-21T16:24:07.972Z,9.75
2022-11-21T16:26:35.294Z,9.82
2022-11-21T16:29:05.491Z,8.70
2022-11-21T16:31:32.758Z,8.80
2022-11-21T16:34:00.805Z,8.45
2022-11-21T16:36:32.073Z,8.80
2022-11-21T16:39:05.207Z,8.32
2022-11-21T16:41:35.162Z,8.25
2022-11-21T16:44:02.089Z,7.43
2022-11-21T16:46:28.964Z,7.80
2022-11-21T16:49:00.665Z,7.07
2022-11-21T16:51:28.284Z,7.22
2022-11-21T16:53:55.181Z,7.32
2022-11-21T16:56:22.085Z,7.30
2022-11-21T16:58:48.984Z,6.82
2022-11-21T17:01:18.314Z,6.70
2022-11-21T17:03:47.418Z,6.68
2022-11-21T17:06:17.326Z,6.20
2022-11-21T17:08:44.345Z,6.43
2022-11-21T17:11:18.647Z,6.15
2022-11-21T17:13:47.576Z,6.00
2022-11-21T17:16:16.264Z,6.22
2022-11-21T17:18:43.639Z,6.05
2022-11-21T17:21:12.850Z,5.45
2022-11-21T17:23:43.493Z,10.85
2022-11-21T17:26:16.012Z,28.92
2022-11-21T17:28:45.969Z,33.97
2022-11-21T17:31:15.518Z,34.85
2022-11-21T17:33:43.370Z,31.30
2022-11-21T17:36:14.492Z,29.63
2022-11-21T17:38:43.081Z,26.83
2022-11-21T17:41:13.496Z,24.05
2022-11-21T17:43:40.620Z,21.48
2022-11-21T17:46:11.959Z,20.13
2022-11-21T17:48:39.179Z,19.13
2022-11-21T17:51:12.609Z,17.92
2022-11-21T17:53:41.753Z,17.35
2022-11-21T17:56:12.130Z,16.17
2022-11-21T17:58:38.979Z,15.13
2022-11-21T18:01:07.268Z,14.05
2022-11-21T18:03:35.729Z,13.75
2022-11-21T18:06:04.697Z,13.20
2022-11-21T18:08:36.502Z,12.30
2022-11-21T18:11:04.508Z,11.77
2022-11-21T18:13:32.361Z,11.88
2022-11-21T18:16:04.779Z,11.70
2022-11-21T18:18:32.655Z,10.27
2022-11-21T18:21:04.066Z,10.95
2022-11-21T18:23:31.157Z,10.25
2022-11-21T18:26:21.099Z,10.38
2022-11-21T18:29:07.131Z,10.63
2022-11-21T18:31:39.338Z,9.40
2022-11-21T18:34:06.861Z,9.50
2022-11-21T18:36:33.850Z,9.32
2022-11-21T18:39:07.190Z,8.75
2022-11-21T18:41:38.397Z,8.60
2022-11-21T18:44:06.367Z,7.85
2022-11-21T18:46:34.516Z,7.95
2022-11-21T18:49:05.359Z,42.90
2022-11-21T18:51:33.948Z,47.08
2022-11-21T18:54:05.258Z,42.22
2022-11-21T18:56:32.293Z,38.33
2022-11-21T18:58:59.556Z,35.10
2022-11-21T19:01:28.487Z,31.98
2022-11-21T19:03:56.126Z,28.25
2022-11-21T19:06:24.357Z,27.00
2022-11-21T19:08:55.646Z,25.20
2022-11-21T19:11:24.691Z,73.43
2022-11-21T19:13:52.723Z,98.72
2022-11-21T19:16:21.689Z,85.18
2022-11-21T19:19:11.568Z,75.65
2022-11-21T19:21:37.910Z,66.23
2022-11-21T19:24:06.872Z,58.92
2022-11-21T19:26:33.965Z,54.83
2022-11-21T19:29:01.093Z,49.67
2022-11-21T19:31:27.996Z,44.42
2022-11-21T19:33:54.916Z,40.42
2022-11-21T19:36:23.152Z,37.65
2022-11-21T19:38:51.385Z,35.08
2022-11-21T19:41:21.037Z,31.42
2022-11-21T19:43:53.014Z,30.88
2022-11-21T19:46:27.517Z,28.90
2022-11-21T19:48:56.171Z,28.10
2022-11-21T19:51:26.200Z,24.15
2022-11-21T19:53:53.311Z,24.63
2022-11-21T19:56:22.253Z,21.40
2022-11-21T19:58:49.693Z,21.20
2022-11-21T20:01:18.601Z,20.70
2022-11-21T20:03:47.778Z,18.38
2022-11-21T20:06:26.057Z,18.25
2022-11-21T20:09:04.749Z,17.42
2022-11-21T20:11:32.060Z,16.65
2022-11-21T20:13:59.207Z,15.63
2022-11-21T20:16:30.779Z,15.68
2022-11-21T20:19:00.488Z,14.68
2022-11-21T20:23:55.519Z,14.50
2022-11-21T20:26:23.062Z,58.05
2022-11-21T20:28:50.188Z,60.15
2022-11-21T20:31:19.223Z,53.15
2022-11-21T20:33:48.092Z,44.97
2022-11-21T20:36:18.739Z,42.30
2022-11-21T20:38:54.120Z,39.70
2022-11-21T20:41:22.488Z,35.58
2022-11-21T20:44:34.673Z,32.65
2022-11-21T20:46:41.341Z,31.58
2022-11-21T20:49:08.402Z,27.52
2022-11-21T20:53:01.034Z,28.35
2022-11-21T20:54:22.035Z,25.40
2022-11-21T20:56:49.145Z,24.83
2022-11-21T20:59:15.968Z,23.15
2022-11-21T21:01:42.984Z,21.77
2022-11-21T21:04:09.822Z,20.70
2022-11-21T21:06:37.686Z,19.70
2022-11-21T21:09:05.074Z,18.88
2022-11-21T21:14:18.772Z,17.05
2022-11-21T21:16:45.617Z,16.17
2022-11-21T21:19:12.553Z,15.38
2022-11-21T21:21:41.487Z,14.77
2022-11-21T21:24:10.154Z,15.57
2022-11-21T21:26:43.398Z,14.27
2022-11-21T21:29:16.508Z,13.65
2022-11-21T21:31:50.014Z,13.80
2022-11-21T21:34:19.497Z,13.27
2022-11-21T21:36:47.034Z,13.35
2022-11-21T21:39:14.267Z,12.13
2022-11-21T21:41:44.736Z,13.05
2022-11-21T21:44:11.820Z,20.42
2022-11-21T21:46:38.731Z,20.42
2022-11-21T21:49:05.590Z,18.48
2022-11-21T21:51:32.515Z,17.92
2022-11-21T21:53:59.915Z,17.27
2022-11-21T21:56:28.021Z,16.30
2022-11-21T21:58:56.249Z,15.90
2022-11-21T22:01:25.074Z,14.27
2022-11-21T22:04:02.588Z,14.00
2022-11-21T22:06:29.777Z,13.02
2022-11-21T22:08:56.811Z,12.40
2022-11-21T22:11:28.851Z,11.90
2022-11-21T22:14:04.166Z,12.23
2022-11-21T22:16:31.668Z,11.63
2022-11-21T22:18:58.824Z,12.07
2022-11-21T22:21:29.958Z,10.82
2022-11-21T22:26:45.862Z,10.18
2022-11-21T22:29:12.785Z,10.77
2022-11-21T22:31:39.786Z,9.93
2022-11-21T22:34:06.606Z,9.35
2022-11-21T22:36:33.493Z,9.65
2022-11-21T22:39:00.853Z,9.00
2022-11-21T22:41:28.298Z,9.02
2022-11-21T22:43:59.166Z,8.75
2022-11-21T22:46:27.329Z,9.48
2022-11-21T22:48:54.697Z,8.48
2022-11-21T22:51:23.737Z,8.90
2022-11-21T22:53:51.058Z,8.23
2022-11-21T22:56:20.050Z,8.65
2022-11-21T22:58:47.361Z,8.30
2022-11-21T23:01:17.329Z,8.45
2022-11-21T23:03:44.577Z,7.97
2022-11-21T23:06:21.361Z,7.78
2022-11-21T23:08:48.853Z,8.27
2022-11-21T23:11:22.703Z,7.28
2022-11-21T23:13:50.124Z,7.90
2022-11-21T23:16:17.657Z,7.70
2022-11-21T23:18:44.647Z,7.40
2022-11-21T23:21:12.514Z,7.78
2022-11-21T23:23:39.618Z,9.55
2022-11-21T23:26:07.246Z,11.90
2022-11-21T23:28:34.286Z,11.55
2022-11-21T23:31:01.340Z,20.83
2022-11-21T23:33:28.354Z,20.67
2022-11-21T23:35:55.326Z,24.05
2022-11-21T23:38:22.215Z,20.75
2022-11-21T23:40:49.710Z,17.25
2022-11-21T23:43:17.573Z,17.80
2022-11-21T23:45:45.553Z,16.35
2022-11-21T23:48:12.450Z,15.13
2022-11-21T23:50:39.385Z,14.05
2022-11-21T23:53:06.301Z,12.70
2022-11-21T23:55:33.185Z,12.85
2022-11-21T23:58:00.076Z,12.18
